createdAt,value
2019-02-16T00:01:30.536Z,95996.34
2019-02-16T00:04:01.404Z,95994.41
2019-02-16T00:06:31.759Z,95999.73
2019-02-16T00:09:02.442Z,96007.34
2019-02-16T00:11:34.746Z,96008.09
2019-02-16T00:14:05.061Z,96007.09
2019-02-16T00:16:35.783Z,96006.58
2019-02-16T00:19:06.391Z,96005.00
2019-02-16T00:21:36.749Z,96010.16
2019-02-16T00:24:07.428Z,96008.09
2019-02-16T00:26:37.778Z,96012.58
2019-02-16T00:29:09.187Z,96008.95
2019-02-16T00:31:39.945Z,96012.43
2019-02-16T00:34:10.259Z,96007.97
2019-02-16T00:36:40.550Z,96008.72
2019-02-16T00:39:11.249Z,95996.93
2019-02-16T00:41:41.761Z,95997.84
2019-02-16T00:44:12.085Z,95993.92
2019-02-16T00:46:42.922Z,95994.61
2019-02-16T00:49:13.499Z,95997.66
2019-02-16T00:51:43.848Z,95993.94
2019-02-16T00:54:14.468Z,95991.45
2019-02-16T00:56:45.401Z,95994.92
2019-02-16T00:59:15.682Z,95998.84
2019-02-16T01:01:46.206Z,95993.33
2019-02-16T01:04:17.000Z,95993.17
2019-02-16T01:06:47.335Z,95990.20
2019-02-16T01:09:17.633Z,95981.67
2019-02-16T01:11:48.318Z,95985.64
2019-02-16T01:14:18.598Z,95979.93
2019-02-16T01:16:49.030Z,95975.64
2019-02-16T01:19:19.860Z,95974.48
2019-02-16T01:21:50.240Z,95977.33
2019-02-16T01:24:20.615Z,95974.47
2019-02-16T01:26:50.909Z,95971.30
2019-02-16T01:29:21.199Z,95975.87
2019-02-16T01:31:51.843Z,95979.52
2019-02-16T01:34:22.108Z,95977.99
2019-02-16T01:36:52.407Z,95981.78
2019-02-16T01:39:23.147Z,95973.86
2019-02-16T01:41:53.613Z,95975.17
2019-02-16T01:44:23.904Z,95975.39
2019-02-16T01:46:54.714Z,95966.21
2019-02-16T01:49:25.288Z,95967.91
2019-02-16T01:51:55.668Z,95966.08
2019-02-16T01:54:26.051Z,95959.69
2019-02-16T01:56:56.472Z,95962.57
2019-02-16T01:59:27.126Z,95959.75
2019-02-16T02:01:57.517Z,95962.31
2019-02-16T02:04:30.634Z,95966.44
2019-02-16T02:07:01.319Z,95971.08
2019-02-16T02:09:31.890Z,95970.13
2019-02-16T02:12:02.216Z,95977.98
2019-02-16T02:14:32.938Z,95975.77
2019-02-16T02:17:03.643Z,95974.83
2019-02-16T02:19:33.914Z,95975.77
2019-02-16T02:22:04.480Z,95970.02
2019-02-16T02:24:34.753Z,95981.87
2019-02-16T02:27:05.399Z,95966.30
2019-02-16T02:29:35.806Z,95973.21
2019-02-16T02:32:06.058Z,95975.83
2019-02-16T02:34:36.694Z,95973.86
2019-02-16T02:37:07.376Z,95970.02
2019-02-16T02:39:37.735Z,95966.41
2019-02-16T02:42:08.463Z,95970.95
2019-02-16T02:44:39.121Z,95971.80
2019-02-16T02:47:09.723Z,95970.85
2019-02-16T02:49:40.001Z,95978.81
2019-02-16T02:52:10.753Z,95982.27
2019-02-16T02:54:42.106Z,95971.38
2019-02-16T02:57:12.920Z,95965.76
2019-02-16T02:59:43.182Z,95966.44
2019-02-16T03:02:13.582Z,95972.56
2019-02-16T03:04:45.308Z,95974.31
2019-02-16T03:07:15.641Z,95976.63
2019-02-16T03:09:45.901Z,95973.81
2019-02-16T03:12:16.529Z,95980.83
2019-02-16T03:14:46.834Z,95982.47
2019-02-16T03:17:17.242Z,95988.05
2019-02-16T03:19:47.766Z,95987.09
2019-02-16T03:22:18.363Z,95987.00
2019-02-16T03:24:48.634Z,95986.08
2019-02-16T03:27:49.084Z,95981.13
2019-02-16T03:30:41.598Z,95990.06
2019-02-16T03:33:51.398Z,95988.08
2019-02-16T03:37:13.811Z,95981.44
2019-02-16T03:39:46.679Z,95980.59
2019-02-16T03:42:17.309Z,95980.95
2019-02-16T03:44:47.916Z,95981.21
2019-02-16T03:47:18.194Z,95976.06
2019-02-16T03:49:49.037Z,95972.02
2019-02-16T03:52:19.617Z,95968.22
2019-02-16T03:54:49.924Z,95971.97
2019-02-16T03:57:20.706Z,95969.16
2019-02-16T03:59:51.104Z,95969.81
2019-02-16T04:02:20.968Z,95969.61
2019-02-16T04:04:51.606Z,95969.61
2019-02-16T04:07:21.901Z,95965.20
2019-02-16T04:09:52.454Z,95964.26
2019-02-16T04:12:23.149Z,95961.52
2019-02-16T04:14:53.488Z,95956.52
2019-02-16T04:17:24.219Z,95955.83
2019-02-16T04:19:54.778Z,95954.90
2019-02-16T04:22:25.216Z,95951.83
2019-02-16T04:24:55.696Z,95951.50
2019-02-16T04:27:26.333Z,95951.92
2019-02-16T04:29:56.658Z,95946.31
2019-02-16T04:32:27.055Z,95940.70
2019-02-16T04:34:57.791Z,95939.93
2019-02-16T04:37:28.458Z,95932.42
2019-02-16T04:39:59.116Z,95942.07
2019-02-16T04:42:29.498Z,95938.69
2019-02-16T04:44:59.992Z,95944.44
2019-02-16T04:47:30.677Z,95950.19
2019-02-16T04:50:01.181Z,95948.21
2019-02-16T04:52:34.666Z,95951.02
2019-02-16T04:55:03.908Z,95956.72
2019-02-16T04:57:34.217Z,95963.76
2019-02-16T05:00:04.858Z,95969.34
2019-02-16T05:02:35.682Z,95967.72
2019-02-16T05:05:06.421Z,95970.55
2019-02-16T05:07:36.816Z,95976.61
2019-02-16T05:10:07.699Z,95978.48
2019-02-16T05:12:38.441Z,95978.40
2019-02-16T05:15:09.170Z,95985.72
2019-02-16T05:17:39.802Z,96000.91
2019-02-16T05:20:10.463Z,95991.95
2019-02-16T05:22:44.565Z,95997.09
2019-02-16T05:25:13.025Z,95997.75
2019-02-16T05:27:43.866Z,96002.40
2019-02-16T05:30:14.136Z,96001.58
2019-02-16T05:32:44.417Z,96003.06
2019-02-16T05:35:15.453Z,96006.80
2019-02-16T05:37:45.749Z,96002.48
2019-02-16T05:40:16.442Z,96004.53
2019-02-16T05:42:46.711Z,96005.78
2019-02-16T05:45:17.381Z,96008.67
2019-02-16T05:47:48.104Z,96013.16
2019-02-16T05:50:18.519Z,96010.98
2019-02-16T05:52:54.428Z,96007.69
2019-02-16T05:55:21.083Z,96010.04
2019-02-16T05:57:51.363Z,96012.03
2019-02-16T06:00:25.411Z,96017.63
2019-02-16T06:02:56.239Z,96022.49
2019-02-16T06:05:26.909Z,96024.69
2019-02-16T06:07:57.206Z,96020.38
2019-02-16T06:10:27.791Z,96020.12
2019-02-16T06:12:58.079Z,96009.78
2019-02-16T06:15:28.868Z,96002.95
2019-02-16T06:17:59.153Z,96010.14
2019-02-16T06:20:29.503Z,96001.72
2019-02-16T06:23:04.464Z,96003.51
2019-02-16T06:25:32.256Z,96006.28
2019-02-16T06:28:02.574Z,96007.47
2019-02-16T06:30:33.556Z,96008.47
2019-02-16T06:33:04.202Z,96016.13
2019-02-16T06:35:41.750Z,96010.64
2019-02-16T06:38:12.349Z,95702.22
2019-02-16T06:40:43.000Z,96023.48
2019-02-16T06:43:13.362Z,96023.94
2019-02-16T06:45:43.944Z,96023.63
2019-02-16T06:48:14.223Z,96023.99
2019-02-16T06:50:45.016Z,96029.67
2019-02-16T06:53:15.791Z,96032.69
2019-02-16T06:56:11.093Z,96030.81
2019-02-16T06:58:41.745Z,96029.72
2019-02-16T07:01:12.348Z,96027.81
2019-02-16T07:03:42.704Z,96034.44
2019-02-16T07:06:13.190Z,96042.65
2019-02-16T07:08:44.291Z,96040.27
2019-02-16T07:11:14.651Z,96027.75
2019-02-16T07:13:44.928Z,96034.22
2019-02-16T07:16:44.247Z,96030.70
2019-02-16T07:19:32.435Z,96031.34
2019-02-16T07:22:03.007Z,96031.35
2019-02-16T07:24:33.440Z,96032.48
2019-02-16T07:27:04.176Z,96039.72
2019-02-16T07:29:34.537Z,96044.25
2019-02-16T07:32:04.864Z,96042.16
2019-02-16T07:34:35.367Z,96054.89
2019-02-16T07:37:06.143Z,96052.11
2019-02-16T07:39:36.424Z,96059.41
2019-02-16T07:42:06.760Z,96057.22
2019-02-16T07:45:02.493Z,96054.94
2019-02-16T07:47:48.238Z,96057.05
2019-02-16T07:50:24.456Z,96064.44
2019-02-16T07:53:13.949Z,96062.53
2019-02-16T07:56:06.053Z,96059.92
2019-02-16T07:58:54.105Z,96060.42
2019-02-16T08:01:46.340Z,96049.73
2019-02-16T08:04:27.463Z,96039.36
2019-02-16T08:07:17.041Z,96036.27
2019-02-16T08:10:18.353Z,96042.45
2019-02-16T08:13:07.546Z,96035.94
2019-02-16T08:15:48.510Z,96036.81
2019-02-16T08:18:37.259Z,96033.77
2019-02-16T08:21:44.987Z,96031.81
2019-02-16T08:24:31.781Z,96028.19
2019-02-16T08:27:23.790Z,96026.05
2019-02-16T08:30:25.377Z,96015.64
2019-02-16T08:33:13.427Z,96015.90
2019-02-16T08:36:02.644Z,96020.66
2019-02-16T08:38:52.282Z,96015.03
2019-02-16T08:41:41.779Z,96020.23
2019-02-16T08:44:26.318Z,96022.11
2019-02-16T08:47:04.175Z,96021.52
2019-02-16T08:49:59.211Z,96021.42
2019-02-16T08:52:51.167Z,96023.06
2019-02-16T08:55:56.210Z,96025.69
2019-02-16T08:58:48.865Z,96014.45
2019-02-16T09:01:47.609Z,96021.30
2019-02-16T09:04:35.328Z,96011.67
2019-02-16T09:07:24.544Z,96009.66
2019-02-16T09:10:20.260Z,96003.11
2019-02-16T09:13:09.888Z,96003.39
2019-02-16T09:16:11.350Z,95998.49
2019-02-16T09:19:10.052Z,95992.44
2019-02-16T09:22:07.119Z,95993.92
2019-02-16T09:24:45.908Z,95999.16
2019-02-16T09:27:37.098Z,95990.73
2019-02-16T09:30:27.477Z,95990.88
2019-02-16T09:33:15.465Z,95993.30
2019-02-16T09:36:03.423Z,95990.32
2019-02-16T09:38:39.614Z,95994.45
2019-02-16T09:41:15.851Z,95988.77
2019-02-16T09:44:05.126Z,95992.78
2019-02-16T09:47:00.532Z,95988.53
2019-02-16T09:49:58.905Z,95984.67
2019-02-16T09:52:36.403Z,95982.48
2019-02-16T09:55:16.921Z,95984.48
2019-02-16T09:58:05.143Z,95990.86
2019-02-16T10:00:41.618Z,95981.89
2019-02-16T10:03:30.238Z,95970.88
2019-02-16T10:06:19.843Z,95968.83
2019-02-16T10:09:08.753Z,95967.35
2019-02-16T10:11:47.077Z,95962.33
2019-02-16T10:14:37.423Z,95959.63
2019-02-16T10:17:22.398Z,95953.39
2019-02-16T10:20:24.219Z,95955.77
2019-02-16T10:23:02.399Z,95959.38
2019-02-16T10:25:52.095Z,95945.13
2019-02-16T10:28:50.935Z,95948.27
2019-02-16T10:31:32.776Z,95947.08
2019-02-16T10:34:20.635Z,95939.52
2019-02-16T10:37:08.562Z,95934.15
2019-02-16T10:39:47.086Z,95939.09
2019-02-16T10:42:27.965Z,95932.30
2019-02-16T10:45:15.909Z,95933.66
2019-02-16T10:48:00.685Z,95927.94
2019-02-16T10:50:44.426Z,95932.76
2019-02-16T10:53:36.491Z,95928.98
2019-02-16T10:56:33.193Z,95924.09
2019-02-16T10:59:14.355Z,95914.14
2019-02-16T11:02:09.695Z,95909.50
2019-02-16T11:04:57.889Z,95894.91
2019-02-16T11:07:39.510Z,95896.64
2019-02-16T11:10:23.866Z,95891.14
2019-02-16T11:13:10.651Z,95889.31
2019-02-16T11:16:09.466Z,95886.66
2019-02-16T11:18:53.077Z,95888.77
2019-02-16T11:21:45.415Z,95882.15
2019-02-16T11:24:40.757Z,95883.17
2019-02-16T11:27:30.008Z,95882.79
2019-02-16T11:30:12.753Z,95882.81
2019-02-16T11:33:02.016Z,95883.55
2019-02-16T11:35:53.933Z,95873.77
2019-02-16T11:38:55.659Z,95870.59
2019-02-16T11:41:43.948Z,95870.80
2019-02-16T11:44:32.306Z,95860.39
2019-02-16T11:47:20.679Z,95864.80
2019-02-16T11:50:03.281Z,95864.67
2019-02-16T11:52:53.620Z,95857.30
2019-02-16T11:55:52.135Z,95861.50
2019-02-16T11:58:59.407Z,95849.02
2019-02-16T12:01:57.775Z,95861.13
2019-02-16T12:04:46.112Z,95852.92
2019-02-16T12:07:23.854Z,95849.44
2019-02-16T12:10:11.099Z,95849.09
2019-02-16T12:12:55.640Z,95832.12
2019-02-16T12:15:47.728Z,95839.67
2019-02-16T12:18:53.116Z,95843.08
2019-02-16T12:21:42.631Z,95838.71
2019-02-16T12:24:44.273Z,95834.33
2019-02-16T12:27:39.466Z,95838.66
2019-02-16T12:30:22.990Z,95840.15
2019-02-16T12:33:12.388Z,95841.56
2019-02-16T12:35:50.850Z,95843.67
2019-02-16T12:38:38.960Z,95835.77
2019-02-16T12:41:31.255Z,95837.00
2019-02-16T12:44:23.939Z,95828.08
2019-02-16T12:47:13.357Z,95831.24
2019-02-16T12:49:53.636Z,95816.39
2019-02-16T12:52:52.707Z,95827.98
2019-02-16T12:55:44.770Z,95820.28
2019-02-16T12:58:23.706Z,95811.40
2019-02-16T13:01:10.218Z,95812.95
2019-02-16T13:03:59.460Z,95808.36
2019-02-16T13:06:46.869Z,95806.50
2019-02-16T13:09:29.070Z,95807.75
2019-02-16T13:12:14.599Z,95808.31
2019-02-16T13:15:09.253Z,95807.63
2019-02-16T13:18:02.663Z,95803.83
2019-02-16T13:20:46.604Z,95797.27
2019-02-16T13:23:28.257Z,95801.34
2019-02-16T13:26:23.693Z,95797.41
2019-02-16T13:29:19.263Z,95793.89
2019-02-16T13:32:08.822Z,95793.91
2019-02-16T13:34:46.788Z,95790.11
2019-02-16T13:37:34.535Z,95784.49
2019-02-16T13:40:26.907Z,95787.82
2019-02-16T13:42:59.693Z,95780.95
2019-02-16T13:45:47.759Z,95780.88
2019-02-16T13:48:26.566Z,95774.00
2019-02-16T13:51:03.702Z,95778.10
2019-02-16T13:53:53.500Z,95778.44
2019-02-16T13:56:38.653Z,95787.91
2019-02-16T13:59:18.443Z,95773.80
2019-02-16T14:02:10.747Z,95776.52
2019-02-16T14:05:08.909Z,95764.39
2019-02-16T14:08:01.258Z,95760.42
2019-02-16T14:10:40.325Z,95760.06
2019-02-16T14:13:29.043Z,95762.31
2019-02-16T14:16:13.700Z,95767.20
2019-02-16T14:18:44.234Z,95766.98
2019-02-16T14:21:14.881Z,95766.84
2019-02-16T14:23:45.165Z,95770.39
2019-02-16T14:26:15.711Z,95774.62
2019-02-16T14:28:46.232Z,95775.38
2019-02-16T14:31:18.576Z,95782.16
2019-02-16T14:33:48.986Z,95517.94
2019-02-16T14:36:19.679Z,95776.61
2019-02-16T14:38:55.736Z,95768.95
2019-02-16T14:41:26.098Z,95765.69
2019-02-16T14:43:57.011Z,95762.26
2019-02-16T14:46:27.587Z,95761.52
2019-02-16T14:48:57.964Z,95757.73
2019-02-16T14:51:28.353Z,95760.39
2019-02-16T14:53:59.068Z,95768.00
2019-02-16T14:56:29.347Z,95763.42
2019-02-16T14:58:59.785Z,95756.31
2019-02-16T15:01:30.120Z,95753.84
2019-02-16T15:04:00.814Z,95759.88
2019-02-16T15:06:31.631Z,95757.58
2019-02-16T15:09:01.915Z,95763.91
2019-02-16T15:11:33.866Z,95757.33
2019-02-16T15:14:04.320Z,95758.16
2019-02-16T15:16:34.587Z,95761.05
2019-02-16T15:19:05.242Z,95745.48
2019-02-16T15:21:35.760Z,95758.19
2019-02-16T15:24:06.039Z,95766.95
2019-02-16T15:26:36.579Z,95751.19
2019-02-16T15:29:06.981Z,95755.80
2019-02-16T15:31:37.659Z,95759.27
2019-02-16T15:34:08.227Z,95758.80
2019-02-16T15:36:38.753Z,95758.88
2019-02-16T15:39:09.160Z,95748.86
2019-02-16T15:41:39.967Z,95756.63
2019-02-16T15:44:10.843Z,95757.76
2019-02-16T15:46:41.227Z,95763.06
2019-02-16T15:49:12.171Z,95759.50
2019-02-16T15:51:42.406Z,95765.73
2019-02-16T15:54:13.005Z,95766.03
2019-02-16T15:56:43.707Z,95770.09
2019-02-16T15:59:14.179Z,95770.74
2019-02-16T16:01:44.596Z,95770.13
2019-02-16T16:04:14.904Z,95773.58
2019-02-16T16:06:45.183Z,95775.39
2019-02-16T16:09:30.690Z,95779.67
2019-02-16T16:12:19.994Z,95781.91
2019-02-16T16:15:08.083Z,95786.75
2019-02-16T16:18:00.857Z,95790.12
2019-02-16T16:20:36.557Z,95795.68
2019-02-16T16:23:34.904Z,95798.42
2019-02-16T16:26:34.149Z,95803.08
2019-02-16T16:29:19.180Z,95803.03
2019-02-16T16:32:14.472Z,95811.02
2019-02-16T16:35:21.681Z,95828.66
2019-02-16T16:38:06.365Z,95816.53
2019-02-16T16:40:54.480Z,95822.42
2019-02-16T16:43:53.170Z,95826.11
2019-02-16T16:46:57.727Z,95825.50
2019-02-16T16:49:59.426Z,95831.98
2019-02-16T16:52:51.855Z,95832.59
2019-02-16T16:55:50.443Z,95836.12
2019-02-16T16:58:42.833Z,95836.80
2019-02-16T17:01:26.808Z,95846.61
2019-02-16T17:04:33.975Z,95846.73
2019-02-16T17:07:27.056Z,95846.27
2019-02-16T17:10:12.212Z,95849.88
2019-02-16T17:13:01.436Z,95855.05
2019-02-16T17:15:55.764Z,95860.04
2019-02-16T17:18:46.916Z,95863.25
2019-02-16T17:21:36.088Z,95858.98
2019-02-16T17:24:24.290Z,95865.38
2019-02-16T17:27:04.638Z,95867.22
2019-02-16T17:29:56.989Z,95868.41
2019-02-16T17:32:49.035Z,95865.59
2019-02-16T17:35:41.099Z,95870.45
2019-02-16T17:38:29.162Z,95872.13
2019-02-16T17:41:11.950Z,95865.94
2019-02-16T17:44:00.884Z,95863.68
2019-02-16T17:46:45.454Z,95867.42
2019-02-16T17:49:44.286Z,95870.31
2019-02-16T17:52:23.119Z,95867.66
2019-02-16T17:55:12.929Z,95877.46
2019-02-16T17:57:55.987Z,95865.58
2019-02-16T18:00:35.460Z,95866.88
2019-02-16T18:03:20.425Z,95869.16
2019-02-16T18:06:09.664Z,95875.61
2019-02-16T18:09:14.008Z,95879.48
2019-02-16T18:11:49.901Z,95879.66
2019-02-16T18:14:54.769Z,95876.91
2019-02-16T18:17:41.167Z,95882.23
2019-02-16T18:20:40.112Z,95884.33
2019-02-16T18:23:15.133Z,95888.83
2019-02-16T18:26:10.534Z,95887.57
2019-02-16T18:28:58.146Z,95883.84
2019-02-16T18:31:38.285Z,95881.91
2019-02-16T18:34:25.113Z,95888.20
2019-02-16T18:37:12.982Z,95894.33
2019-02-16T18:39:54.008Z,95887.71
2019-02-16T18:42:42.805Z,95889.98
2019-02-16T18:45:32.613Z,95885.30
2019-02-16T18:48:21.819Z,95889.02
2019-02-16T18:51:10.716Z,95892.39
2019-02-16T18:54:09.009Z,95886.76
2019-02-16T18:57:06.756Z,95887.23
2019-02-16T18:59:46.321Z,95884.34
2019-02-16T19:02:34.771Z,95888.69
2019-02-16T19:05:30.389Z,95889.32
2019-02-16T19:08:27.408Z,95897.86
2019-02-16T19:11:25.880Z,95888.67
2019-02-16T19:14:24.242Z,95890.28
2019-02-16T19:17:02.099Z,95892.87
2019-02-16T19:19:54.434Z,95895.44
2019-02-16T19:22:33.770Z,95884.80
2019-02-16T19:25:38.289Z,95893.19
2019-02-16T19:28:27.782Z,95895.92
2019-02-16T19:31:09.018Z,95892.20
2019-02-16T19:33:52.579Z,95896.08
2019-02-16T19:36:35.979Z,95898.50
2019-02-16T19:39:19.869Z,95906.05
2019-02-16T19:42:09.441Z,95900.59
2019-02-16T19:44:57.888Z,95894.33
2019-02-16T19:47:56.180Z,95904.81
2019-02-16T19:50:44.623Z,95901.58
2019-02-16T19:53:26.788Z,95902.52
2019-02-16T19:56:22.153Z,95905.27
2019-02-16T19:59:14.224Z,95902.52
2019-02-16T20:02:01.575Z,95901.86
2019-02-16T20:04:44.211Z,95904.44
2019-02-16T20:07:33.635Z,95901.35
2019-02-16T20:10:21.872Z,95902.82
2019-02-16T20:13:11.135Z,95903.11
2019-02-16T20:15:48.748Z,95896.49
2019-02-16T20:18:40.763Z,95899.69
2019-02-16T20:21:24.431Z,95901.30
2019-02-16T20:24:06.276Z,95903.73
2019-02-16T20:26:54.009Z,95905.51
2019-02-16T20:29:33.581Z,95907.75
2019-02-16T20:32:35.386Z,95904.41
2019-02-16T20:35:23.409Z,95899.31
2019-02-16T20:38:00.812Z,95902.59
2019-02-16T20:40:48.413Z,95907.75
2019-02-16T20:43:27.352Z,95905.78
2019-02-16T20:46:19.502Z,95903.84
2019-02-16T20:49:03.217Z,95906.70
2019-02-16T20:51:42.725Z,95913.79
2019-02-16T20:54:50.350Z,95907.17
2019-02-16T20:57:35.606Z,95911.17
2019-02-16T21:00:31.030Z,95909.88
2019-02-16T21:03:30.457Z,95899.57
2019-02-16T21:06:20.393Z,95911.49
2019-02-16T21:09:12.679Z,95912.64
2019-02-16T21:12:00.326Z,95908.37
2019-02-16T21:14:55.931Z,95913.17
2019-02-16T21:17:46.543Z,95906.59
2019-02-16T21:20:34.603Z,95907.17
2019-02-16T21:23:27.374Z,95899.02
2019-02-16T21:26:05.513Z,95909.84
2019-02-16T21:28:45.316Z,95909.51
2019-02-16T21:31:30.289Z,95914.13
2019-02-16T21:34:05.941Z,95909.20
2019-02-16T21:36:44.090Z,95905.33
2019-02-16T21:39:34.958Z,95901.08
2019-02-16T21:42:19.522Z,95904.44
2019-02-16T21:45:07.689Z,95906.14
2019-02-16T21:47:55.687Z,95909.73
2019-02-16T21:50:44.105Z,95907.02
2019-02-16T21:53:34.139Z,95909.59
2019-02-16T21:56:17.537Z,95904.58
2019-02-16T21:59:18.646Z,95905.45
2019-02-16T22:01:52.943Z,95908.59
2019-02-16T22:04:35.826Z,95898.36
2019-02-16T22:07:24.610Z,95900.20
2019-02-16T22:10:25.907Z,95895.42
2019-02-16T22:13:15.363Z,95903.45
2019-02-16T22:15:45.978Z,95891.23
2019-02-16T22:18:17.419Z,95891.33
2019-02-16T22:20:47.770Z,95890.05
2019-02-16T22:23:18.723Z,95887.13
2019-02-16T22:25:49.253Z,95892.13
2019-02-16T22:28:30.223Z,95892.28
2019-02-16T22:30:52.214Z,95885.95
2019-02-16T22:33:22.787Z,95890.66
2019-02-16T22:35:53.692Z,95891.44
2019-02-16T22:38:24.356Z,95887.66
2019-02-16T22:40:54.993Z,95885.58
2019-02-16T22:43:25.927Z,95888.67
2019-02-16T22:45:56.461Z,95886.34
2019-02-16T22:48:26.988Z,95884.91
2019-02-16T22:50:57.828Z,95881.33
2019-02-16T22:53:28.356Z,95881.66
2019-02-16T22:55:58.886Z,95878.80
2019-02-16T22:58:29.682Z,95887.16
2019-02-16T23:01:00.348Z,95876.70
2019-02-16T23:03:32.513Z,95884.91
2019-02-16T23:06:03.459Z,95882.28
2019-02-16T23:08:33.865Z,95881.28
2019-02-16T23:11:05.726Z,95874.17
2019-02-16T23:13:35.993Z,95878.75
2019-02-16T23:16:06.319Z,95879.42
2019-02-16T23:18:36.942Z,95882.62
2019-02-16T23:21:08.506Z,95878.95
2019-02-16T23:23:38.861Z,95875.74
2019-02-16T23:26:09.896Z,95873.80
2019-02-16T23:28:40.580Z,95869.01
2019-02-16T23:31:10.897Z,95876.55
2019-02-16T23:33:41.471Z,95869.00
2019-02-16T23:36:11.997Z,95878.09
2019-02-16T23:38:42.307Z,95870.19
2019-02-16T23:41:12.843Z,95862.39
2019-02-16T23:43:43.445Z,95870.08
2019-02-16T23:46:13.762Z,95869.27
2019-02-16T23:48:44.043Z,95869.42
2019-02-16T23:51:14.713Z,95872.22
2019-02-16T23:53:45.042Z,95869.97
2019-02-16T23:56:15.307Z,95862.45
2019-02-16T23:58:49.217Z,95867.75
